createdAt,value
2018-07-06T00:00:53.949Z,0.00
2018-07-06T00:01:54.193Z,0.00
2018-07-06T00:02:54.437Z,0.00
2018-07-06T00:03:54.681Z,0.00
2018-07-06T00:04:54.928Z,0.00
2018-07-06T00:05:55.174Z,0.00
2018-07-06T00:06:55.419Z,0.00
2018-07-06T00:07:55.663Z,0.00
2018-07-06T00:08:55.907Z,0.00
2018-07-06T00:09:56.151Z,0.00
2018-07-06T00:10:56.414Z,0.00
2018-07-06T00:11:56.641Z,0.00
2018-07-06T00:12:56.886Z,0.00
2018-07-06T00:13:57.132Z,0.00
2018-07-06T00:14:57.376Z,0.00
2018-07-06T00:15:57.621Z,0.00
2018-07-06T00:16:57.864Z,0.00
2018-07-06T00:17:58.112Z,0.00
2018-07-06T00:18:58.356Z,0.00
2018-07-06T00:19:58.601Z,0.00
2018-07-06T00:20:58.846Z,0.00
2018-07-06T00:21:59.090Z,0.00
2018-07-06T00:22:59.337Z,0.00
2018-07-06T00:23:59.579Z,0.00
2018-07-06T00:24:59.822Z,0.00
2018-07-06T00:26:00.069Z,0.00
2018-07-06T00:27:00.314Z,0.00
2018-07-06T00:28:00.556Z,0.00
2018-07-06T00:29:00.803Z,0.00
2018-07-06T00:30:01.048Z,0.00
2018-07-06T00:31:01.294Z,0.00
2018-07-06T00:32:01.538Z,0.00
2018-07-06T00:33:01.782Z,0.00
2018-07-06T00:34:02.028Z,0.00
2018-07-06T00:35:02.271Z,0.00
2018-07-06T00:36:02.516Z,0.00
2018-07-06T00:37:02.759Z,0.00
2018-07-06T00:38:03.004Z,0.00
2018-07-06T00:39:03.250Z,0.00
2018-07-06T00:40:03.494Z,0.00
2018-07-06T00:41:03.737Z,0.00
2018-07-06T00:42:03.983Z,0.00
2018-07-06T00:43:04.229Z,0.00
2018-07-06T00:44:04.473Z,0.00
2018-07-06T00:45:04.716Z,0.00
2018-07-06T00:46:04.961Z,0.00
2018-07-06T00:47:05.206Z,0.00
2018-07-06T00:48:05.452Z,0.00
2018-07-06T00:49:05.695Z,0.00
2018-07-06T00:50:05.940Z,0.00
2018-07-06T00:51:06.185Z,0.00
2018-07-06T00:52:06.431Z,0.00
2018-07-06T00:53:06.676Z,0.00
2018-07-06T00:54:06.919Z,0.00
2018-07-06T00:55:07.165Z,0.00
2018-07-06T00:56:07.409Z,0.00
2018-07-06T00:57:07.658Z,0.00
2018-07-06T00:58:07.899Z,0.00
2018-07-06T00:59:08.144Z,0.00
2018-07-06T01:00:08.388Z,0.00
2018-07-06T01:01:08.632Z,0.00
2018-07-06T01:02:08.878Z,0.00
2018-07-06T01:03:09.123Z,0.00
2018-07-06T01:04:09.366Z,0.00
2018-07-06T01:05:09.611Z,0.00
2018-07-06T01:06:09.856Z,0.00
2018-07-06T01:07:10.100Z,0.00
2018-07-06T01:08:10.344Z,0.00
2018-07-06T01:09:10.589Z,0.00
2018-07-06T01:10:10.864Z,0.00
2018-07-06T01:11:11.077Z,0.00
2018-07-06T01:12:11.321Z,0.00
2018-07-06T01:13:11.566Z,0.00
2018-07-06T01:14:11.811Z,0.00
2018-07-06T01:15:12.056Z,0.00
2018-07-06T01:16:12.307Z,0.00
2018-07-06T01:17:12.544Z,0.00
2018-07-06T01:18:12.790Z,0.00
2018-07-06T01:19:13.034Z,0.00
2018-07-06T01:20:13.281Z,0.00
2018-07-06T01:21:13.524Z,0.00
2018-07-06T01:22:13.767Z,0.00
2018-07-06T01:23:14.012Z,0.00
2018-07-06T01:24:14.255Z,0.00
2018-07-06T01:25:14.499Z,0.00
2018-07-06T01:26:14.746Z,0.00
2018-07-06T01:27:14.990Z,0.00
2018-07-06T01:28:15.235Z,0.00
2018-07-06T01:29:15.478Z,0.00
2018-07-06T01:30:15.724Z,0.00
2018-07-06T01:31:15.969Z,0.00
2018-07-06T01:32:16.215Z,0.00
2018-07-06T01:33:16.461Z,0.00
2018-07-06T01:34:16.704Z,0.00
2018-07-06T01:35:16.951Z,0.00
2018-07-06T01:36:17.192Z,0.00
2018-07-06T01:37:17.440Z,0.00
2018-07-06T01:38:17.680Z,0.00
2018-07-06T01:39:17.925Z,0.00
2018-07-06T01:40:18.175Z,0.00
2018-07-06T01:41:18.412Z,0.00
2018-07-06T01:42:18.668Z,0.00
2018-07-06T01:43:18.913Z,0.00
2018-07-06T01:44:19.155Z,0.00
2018-07-06T01:45:19.399Z,0.00
2018-07-06T01:46:19.644Z,0.00
2018-07-06T01:47:19.890Z,0.00
2018-07-06T01:48:20.133Z,0.00
2018-07-06T01:49:20.377Z,0.00
2018-07-06T01:50:20.622Z,0.00
2018-07-06T01:51:20.868Z,0.00
2018-07-06T01:52:21.114Z,0.00
2018-07-06T01:53:21.357Z,0.00
2018-07-06T01:54:21.601Z,0.00
2018-07-06T01:55:21.845Z,0.00
2018-07-06T01:56:22.091Z,0.00
2018-07-06T01:57:22.335Z,0.00
2018-07-06T01:58:22.578Z,0.00
2018-07-06T01:59:22.824Z,0.00
2018-07-06T02:00:23.068Z,0.00
2018-07-06T02:01:23.311Z,0.00
2018-07-06T02:02:23.557Z,0.00
2018-07-06T02:03:23.799Z,0.00
2018-07-06T02:04:24.046Z,0.00
2018-07-06T02:05:24.293Z,0.00
2018-07-06T02:06:24.533Z,0.00
2018-07-06T02:07:24.777Z,0.00
2018-07-06T02:08:25.024Z,0.00
2018-07-06T02:09:25.266Z,0.00
2018-07-06T02:10:25.512Z,0.00
2018-07-06T02:11:25.757Z,0.00
2018-07-06T02:12:26.004Z,0.00
2018-07-06T02:13:26.253Z,0.00
2018-07-06T02:14:26.497Z,0.00
2018-07-06T02:15:26.740Z,0.00
2018-07-06T02:16:26.987Z,0.00
2018-07-06T02:17:27.231Z,0.00
2018-07-06T02:18:27.475Z,0.00
2018-07-06T02:19:27.723Z,0.00
2018-07-06T02:20:27.971Z,0.00
2018-07-06T02:21:28.216Z,0.00
2018-07-06T02:22:28.462Z,0.00
2018-07-06T02:23:28.707Z,0.00
2018-07-06T02:24:28.954Z,0.00
2018-07-06T02:25:29.200Z,0.00
2018-07-06T02:26:29.442Z,0.00
2018-07-06T02:27:29.689Z,0.00
2018-07-06T02:28:29.933Z,0.00
2018-07-06T02:29:30.178Z,0.00
2018-07-06T02:30:30.424Z,0.00
2018-07-06T02:31:30.672Z,4.00
2018-07-06T02:32:30.916Z,4.00
2018-07-06T02:33:31.162Z,0.00
2018-07-06T02:34:31.408Z,0.00
2018-07-06T02:35:31.655Z,4.00
2018-07-06T02:36:31.900Z,4.00
2018-07-06T02:37:32.145Z,4.00
2018-07-06T02:38:32.392Z,4.00
2018-07-06T02:39:32.639Z,4.00
2018-07-06T02:40:32.882Z,4.00
2018-07-06T02:41:33.127Z,4.00
2018-07-06T02:42:33.370Z,8.00
2018-07-06T02:43:33.618Z,8.00
2018-07-06T02:44:33.864Z,8.00
2018-07-06T02:45:34.111Z,8.00
2018-07-06T02:46:34.356Z,8.00
2018-07-06T02:47:34.597Z,12.00
2018-07-06T02:48:34.843Z,16.00
2018-07-06T02:49:35.089Z,16.00
2018-07-06T02:50:35.333Z,20.00
2018-07-06T02:51:35.585Z,24.00
2018-07-06T02:52:35.824Z,24.00
2018-07-06T02:53:36.067Z,28.00
2018-07-06T02:54:36.312Z,28.00
2018-07-06T02:55:36.557Z,36.00
2018-07-06T02:56:36.822Z,40.00
2018-07-06T02:57:37.050Z,44.00
2018-07-06T02:58:37.297Z,52.00
2018-07-06T02:59:37.539Z,60.00
2018-07-06T03:00:37.785Z,64.00
2018-07-06T03:01:38.029Z,72.00
2018-07-06T03:02:38.305Z,80.00
2018-07-06T03:03:38.520Z,92.00
2018-07-06T03:04:38.767Z,100.00
2018-07-06T03:05:39.011Z,112.00
2018-07-06T03:06:39.257Z,128.00
2018-07-06T03:07:39.503Z,140.00
2018-07-06T03:08:39.749Z,152.00
2018-07-06T03:09:39.998Z,168.00
2018-07-06T03:10:40.239Z,184.00
2018-07-06T03:11:40.482Z,200.00
2018-07-06T03:12:40.729Z,216.00
2018-07-06T03:13:40.972Z,232.00
2018-07-06T03:14:41.217Z,252.00
2018-07-06T03:15:41.463Z,276.00
2018-07-06T03:16:41.708Z,296.00
2018-07-06T03:17:41.950Z,324.00
2018-07-06T03:18:42.194Z,348.00
2018-07-06T03:19:42.438Z,376.00
2018-07-06T03:20:42.683Z,400.00
2018-07-06T03:21:42.928Z,432.00
2018-07-06T03:22:43.170Z,460.00
2018-07-06T03:23:43.417Z,492.00
2018-07-06T03:24:43.660Z,524.00
2018-07-06T03:25:43.906Z,564.00
2018-07-06T03:26:44.151Z,596.00
2018-07-06T03:27:44.458Z,632.00
2018-07-06T03:28:44.871Z,680.00
2018-07-06T03:29:44.887Z,724.00
2018-07-06T03:30:45.133Z,768.00
2018-07-06T03:31:45.379Z,820.00
2018-07-06T03:32:45.624Z,864.00
2018-07-06T03:33:45.870Z,908.00
2018-07-06T03:34:46.114Z,960.00
2018-07-06T03:35:46.359Z,1008.00
2018-07-06T03:36:46.605Z,1064.00
2018-07-06T03:37:46.848Z,1120.00
2018-07-06T03:38:47.093Z,1176.00
2018-07-06T03:39:47.339Z,1240.00
2018-07-06T03:40:47.582Z,1316.00
2018-07-06T03:41:47.827Z,1384.00
2018-07-06T03:42:48.071Z,1444.00
2018-07-06T03:43:48.316Z,1508.00
2018-07-06T03:44:48.560Z,1580.00
2018-07-06T03:45:48.802Z,1624.00
2018-07-06T03:46:49.050Z,1648.00
2018-07-06T03:47:49.295Z,1668.00
2018-07-06T03:48:49.542Z,1724.00
2018-07-06T03:49:49.782Z,1816.00
2018-07-06T03:50:50.026Z,1924.00
2018-07-06T03:51:50.270Z,2024.00
2018-07-06T03:52:50.513Z,2132.00
2018-07-06T03:53:50.761Z,2236.00
2018-07-06T03:54:51.021Z,2332.00
2018-07-06T03:55:51.248Z,2388.00
2018-07-06T03:56:51.497Z,2448.00
2018-07-06T03:57:51.738Z,2508.00
2018-07-06T03:58:51.979Z,2604.00
2018-07-06T03:59:52.224Z,2692.00
2018-07-06T04:00:52.470Z,2756.00
2018-07-06T04:01:52.714Z,2792.00
2018-07-06T04:02:52.959Z,2820.00
2018-07-06T04:03:53.203Z,2892.00
2018-07-06T04:04:53.448Z,2996.00
2018-07-06T04:05:53.693Z,3112.00
2018-07-06T04:06:53.939Z,3204.00
2018-07-06T04:07:54.185Z,3280.00
2018-07-06T04:08:54.429Z,3360.00
2018-07-06T04:09:54.676Z,3444.00
2018-07-06T04:10:54.920Z,3512.00
2018-07-06T04:11:55.166Z,3564.00
2018-07-06T04:12:55.412Z,3628.00
2018-07-06T04:13:55.658Z,3708.00
2018-07-06T04:14:55.902Z,3772.00
2018-07-06T04:15:56.200Z,3832.00
2018-07-06T04:16:56.392Z,3900.00
2018-07-06T04:17:56.638Z,3948.00
2018-07-06T04:18:56.884Z,4004.00
2018-07-06T04:19:57.130Z,4072.00
2018-07-06T04:20:57.376Z,4116.00
2018-07-06T04:21:57.625Z,4168.00
2018-07-06T04:22:57.869Z,4244.00
2018-07-06T04:23:58.117Z,4304.00
2018-07-06T04:24:58.364Z,4368.00
2018-07-06T04:25:58.612Z,4420.00
2018-07-06T04:26:58.855Z,4476.00
2018-07-06T04:27:59.100Z,4552.00
2018-07-06T04:28:59.344Z,4612.00
2018-07-06T04:29:59.593Z,4664.00
2018-07-06T04:30:59.840Z,4744.00
2018-07-06T04:32:00.087Z,4796.00
2018-07-06T04:33:00.334Z,4852.00
2018-07-06T04:34:00.585Z,4884.00
2018-07-06T04:35:00.829Z,4924.00
2018-07-06T04:36:01.078Z,4916.00
2018-07-06T04:37:01.324Z,4864.00
2018-07-06T04:38:01.571Z,4836.00
2018-07-06T04:39:01.819Z,4840.00
2018-07-06T04:40:02.064Z,4944.00
2018-07-06T04:41:02.310Z,5056.00
2018-07-06T04:42:02.557Z,5076.00
2018-07-06T04:43:02.803Z,4984.00
2018-07-06T04:44:03.051Z,4940.00
2018-07-06T04:45:03.297Z,5004.00
2018-07-06T04:46:03.542Z,4852.00
2018-07-06T04:47:03.789Z,4984.00
2018-07-06T04:48:04.036Z,5316.00
2018-07-06T04:49:04.280Z,5580.00
2018-07-06T04:50:04.527Z,5720.00
2018-07-06T04:51:04.810Z,5800.00
2018-07-06T04:52:05.020Z,5868.00
2018-07-06T04:53:05.266Z,5908.00
2018-07-06T04:54:05.513Z,5956.00
2018-07-06T04:55:05.760Z,5992.00
2018-07-06T04:56:06.006Z,6056.00
2018-07-06T04:57:06.251Z,6136.00
2018-07-06T04:58:06.497Z,6216.00
2018-07-06T04:59:06.745Z,6248.00
2018-07-06T05:00:06.992Z,6172.00
2018-07-06T05:01:07.239Z,6152.00
2018-07-06T05:02:07.487Z,6280.00
2018-07-06T05:03:07.735Z,6408.00
2018-07-06T05:04:07.983Z,6444.00
2018-07-06T05:05:08.224Z,6432.00
2018-07-06T05:06:08.473Z,6320.00
2018-07-06T05:07:08.724Z,5996.00
2018-07-06T05:08:08.966Z,5952.00
2018-07-06T05:09:09.213Z,6044.00
2018-07-06T05:10:09.475Z,6212.00
2018-07-06T05:11:09.706Z,6476.00
2018-07-06T05:12:09.947Z,6464.00
2018-07-06T05:13:10.191Z,6436.00
2018-07-06T05:14:10.438Z,6532.00
2018-07-06T05:15:10.680Z,6532.00
2018-07-06T05:16:10.926Z,6580.00
2018-07-06T05:17:11.169Z,6684.00
2018-07-06T05:18:11.415Z,6660.00
2018-07-06T05:19:11.662Z,6560.00
2018-07-06T05:20:11.906Z,6448.00
2018-07-06T05:21:12.149Z,6368.00
2018-07-06T05:22:12.395Z,6316.00
2018-07-06T05:23:12.639Z,6276.00
2018-07-06T05:24:12.882Z,6244.00
2018-07-06T05:25:13.125Z,6252.00
2018-07-06T05:26:13.371Z,6376.00
2018-07-06T05:27:13.615Z,6556.00
2018-07-06T05:28:13.861Z,6712.00
2018-07-06T05:29:14.107Z,6728.00
2018-07-06T05:30:14.353Z,5972.00
2018-07-06T05:31:14.597Z,6372.00
2018-07-06T05:32:14.843Z,6796.00
2018-07-06T05:33:15.087Z,6396.00
2018-07-06T05:34:15.330Z,6936.00
2018-07-06T05:35:15.573Z,7148.00
2018-07-06T05:36:15.820Z,7436.00
2018-07-06T05:37:16.063Z,7448.00
2018-07-06T05:38:16.306Z,7628.00
2018-07-06T05:39:16.551Z,7512.00
2018-07-06T05:40:16.793Z,7280.00
2018-07-06T05:41:17.038Z,7492.00
2018-07-06T05:42:17.281Z,7820.00
2018-07-06T05:43:17.525Z,7936.00
2018-07-06T05:44:17.773Z,8172.00
2018-07-06T05:45:18.013Z,7864.00
2018-07-06T05:46:18.293Z,7548.00
2018-07-06T05:47:18.500Z,7020.00
2018-07-06T05:48:18.744Z,7624.00
2018-07-06T05:49:18.989Z,7572.00
2018-07-06T05:50:19.233Z,7764.00
2018-07-06T05:51:19.475Z,7604.00
2018-07-06T05:52:19.719Z,7004.00
2018-07-06T05:53:19.963Z,7600.00
2018-07-06T05:54:20.206Z,7484.00
2018-07-06T05:55:20.452Z,7532.00
2018-07-06T05:56:20.696Z,7624.00
2018-07-06T05:57:20.940Z,7092.00
2018-07-06T05:58:21.184Z,7684.00
2018-07-06T05:59:21.510Z,7964.00
2018-07-06T06:00:21.673Z,7344.00
2018-07-06T06:01:21.917Z,8024.00
2018-07-06T06:02:22.162Z,7060.00
2018-07-06T06:03:22.405Z,7988.00
2018-07-06T06:04:22.649Z,8076.00
2018-07-06T06:05:22.893Z,7204.00
2018-07-06T06:06:23.136Z,7136.00
2018-07-06T06:07:23.381Z,7964.00
2018-07-06T06:08:23.626Z,7156.00
2018-07-06T06:09:23.873Z,8304.00
2018-07-06T06:10:24.117Z,7988.00
2018-07-06T06:11:24.361Z,8272.00
2018-07-06T06:12:24.607Z,8336.00
2018-07-06T06:13:24.851Z,8740.00
2018-07-06T06:14:25.096Z,8804.00
2018-07-06T06:15:25.339Z,8364.00
2018-07-06T06:16:25.584Z,7864.00
2018-07-06T06:17:25.828Z,7912.00
2018-07-06T06:18:26.120Z,6836.00
2018-07-06T06:19:26.313Z,6532.00
2018-07-06T06:20:26.558Z,6516.00
2018-07-06T06:21:26.802Z,7088.00
2018-07-06T06:22:27.047Z,7088.00
2018-07-06T06:23:27.290Z,7140.00
2018-07-06T06:24:27.535Z,7308.00
2018-07-06T06:25:27.777Z,7340.00
2018-07-06T06:26:28.023Z,7076.00
2018-07-06T06:27:28.266Z,7256.00
2018-07-06T06:28:28.511Z,7152.00
2018-07-06T06:29:28.756Z,6836.00
2018-07-06T06:30:29.001Z,7012.00
2018-07-06T06:31:29.242Z,7040.00
2018-07-06T06:32:29.486Z,7368.00
2018-07-06T06:33:29.860Z,6924.00
2018-07-06T06:34:29.975Z,6956.00
2018-07-06T06:35:30.221Z,6924.00
2018-07-06T06:36:30.459Z,7684.00
2018-07-06T06:37:30.704Z,7940.00
2018-07-06T06:38:30.949Z,8340.00
2018-07-06T06:39:31.258Z,8492.00
2018-07-06T06:40:31.440Z,8528.00
2018-07-06T06:41:31.683Z,8508.00
2018-07-06T06:42:31.929Z,8612.00
2018-07-06T06:43:32.172Z,8580.00
2018-07-06T06:44:32.419Z,8528.00
2018-07-06T06:45:32.661Z,8468.00
2018-07-06T06:46:32.969Z,8828.00
2018-07-06T06:47:33.146Z,8800.00
2018-07-06T06:48:33.391Z,8808.00
2018-07-06T06:49:33.635Z,8876.00
2018-07-06T06:50:33.878Z,9032.00
2018-07-06T06:51:34.124Z,9304.00
2018-07-06T06:52:34.373Z,9572.00
2018-07-06T06:53:34.614Z,9644.00
2018-07-06T06:54:34.860Z,9640.00
2018-07-06T06:55:35.099Z,9904.00
2018-07-06T06:56:35.343Z,10160.00
2018-07-06T06:57:35.586Z,10692.00
2018-07-06T06:58:35.834Z,10912.00
2018-07-06T06:59:36.078Z,11372.00
2018-07-06T07:00:36.319Z,11360.00
2018-07-06T07:01:36.564Z,11596.00
2018-07-06T07:02:36.810Z,12036.00
2018-07-06T07:03:37.053Z,12024.00
2018-07-06T07:04:37.300Z,11912.00
2018-07-06T07:05:37.545Z,11796.00
2018-07-06T07:06:37.789Z,12540.00
2018-07-06T07:07:38.204Z,14384.00
2018-07-06T07:08:38.281Z,15844.00
2018-07-06T07:09:38.530Z,14804.00
2018-07-06T07:10:38.773Z,13436.00
2018-07-06T07:11:39.018Z,12740.00
2018-07-06T07:12:39.266Z,12920.00
2018-07-06T07:13:39.522Z,12868.00
2018-07-06T07:14:39.754Z,12524.00
2018-07-06T07:15:40.000Z,12012.00
2018-07-06T07:16:40.248Z,11540.00
2018-07-06T07:17:40.493Z,11528.00
2018-07-06T07:18:40.739Z,12012.00
2018-07-06T07:19:40.984Z,11896.00
2018-07-06T07:20:41.229Z,11720.00
2018-07-06T07:21:41.475Z,11504.00
2018-07-06T07:22:41.720Z,11376.00
2018-07-06T07:23:41.983Z,11428.00
2018-07-06T07:24:42.209Z,12548.00
2018-07-06T07:25:42.454Z,13892.00
2018-07-06T07:26:42.700Z,14668.00
2018-07-06T07:27:42.970Z,13244.00
2018-07-06T07:28:43.194Z,11832.00
2018-07-06T07:29:43.440Z,11008.00
2018-07-06T07:30:43.682Z,9768.00
2018-07-06T07:31:43.927Z,9716.00
2018-07-06T07:32:44.173Z,10060.00
2018-07-06T07:33:44.419Z,11100.00
2018-07-06T07:34:44.667Z,13332.00
2018-07-06T07:35:44.917Z,14556.00
2018-07-06T07:36:45.162Z,14848.00
2018-07-06T07:37:45.406Z,15172.00
2018-07-06T07:38:45.650Z,15284.00
2018-07-06T07:39:45.901Z,14876.00
2018-07-06T07:40:46.146Z,14112.00
2018-07-06T07:41:46.392Z,13844.00
2018-07-06T07:42:46.640Z,13036.00
2018-07-06T07:43:46.889Z,12656.00
2018-07-06T07:44:47.136Z,11508.00
2018-07-06T07:45:47.384Z,11528.00
2018-07-06T07:46:47.630Z,10808.00
2018-07-06T07:47:47.879Z,11000.00
2018-07-06T07:48:48.128Z,11356.00
2018-07-06T07:49:48.377Z,11372.00
2018-07-06T07:50:48.626Z,11852.00
2018-07-06T07:51:48.875Z,12084.00
2018-07-06T07:52:49.125Z,10980.00
2018-07-06T07:53:49.372Z,10500.00
2018-07-06T07:54:49.620Z,11720.00
2018-07-06T07:55:49.869Z,12296.00
2018-07-06T07:56:50.118Z,12340.00
2018-07-06T07:57:50.366Z,12352.00
2018-07-06T07:58:50.616Z,13160.00
2018-07-06T07:59:50.861Z,13316.00
2018-07-06T08:00:51.235Z,13460.00
2018-07-06T08:01:51.362Z,12740.00
2018-07-06T08:02:51.609Z,12444.00
2018-07-06T08:03:51.856Z,12232.00
2018-07-06T08:04:52.105Z,12752.00
2018-07-06T08:05:52.351Z,13048.00
2018-07-06T08:06:52.604Z,12956.00
2018-07-06T08:07:52.852Z,12876.00
2018-07-06T08:08:53.100Z,12828.00
2018-07-06T08:09:53.350Z,12724.00
2018-07-06T08:10:53.599Z,12528.00
2018-07-06T08:11:53.925Z,12388.00
2018-07-06T08:12:54.098Z,12664.00
2018-07-06T08:13:54.344Z,12696.00
2018-07-06T08:14:54.596Z,12516.00
2018-07-06T08:15:54.844Z,12712.00
2018-07-06T08:16:55.092Z,13816.00
2018-07-06T08:17:55.340Z,14296.00
2018-07-06T08:18:55.591Z,13768.00
2018-07-06T08:19:55.844Z,14088.00
2018-07-06T08:20:56.090Z,15072.00
2018-07-06T08:21:56.337Z,14552.00
2018-07-06T08:22:56.588Z,16384.00
2018-07-06T08:23:56.836Z,17888.00
2018-07-06T08:24:57.085Z,17952.00
2018-07-06T08:25:57.337Z,17696.00
2018-07-06T08:26:57.591Z,17568.00
2018-07-06T08:27:57.841Z,16012.00
2018-07-06T08:28:58.093Z,16472.00
2018-07-06T08:29:58.341Z,16900.00
2018-07-06T08:30:58.591Z,16752.00
2018-07-06T08:31:58.842Z,16756.00
2018-07-06T08:32:59.091Z,16728.00
2018-07-06T08:33:59.342Z,16668.00
2018-07-06T08:34:59.594Z,16664.00
2018-07-06T08:35:59.846Z,16836.00
2018-07-06T08:37:00.097Z,17504.00
2018-07-06T08:38:00.353Z,19232.00
2018-07-06T08:39:00.601Z,19680.00
2018-07-06T08:40:00.854Z,21312.00
2018-07-06T08:41:01.108Z,23936.00
2018-07-06T08:42:01.359Z,26624.00
2018-07-06T08:43:01.608Z,26176.00
2018-07-06T08:44:01.863Z,27264.00
2018-07-06T08:45:02.194Z,27968.00
2018-07-06T08:46:02.365Z,28544.00
2018-07-06T08:47:02.618Z,30784.00
2018-07-06T08:48:02.875Z,32416.00
2018-07-06T08:49:03.123Z,33056.00
2018-07-06T08:50:03.376Z,31488.00
2018-07-06T08:51:03.626Z,30432.00
2018-07-06T08:52:03.878Z,29056.00
2018-07-06T08:53:04.130Z,29984.00
2018-07-06T08:54:04.378Z,34464.00
2018-07-06T08:55:04.629Z,34976.00
2018-07-06T08:56:04.882Z,34144.00
2018-07-06T08:57:05.134Z,34400.00
2018-07-06T08:58:05.390Z,36704.00
2018-07-06T08:59:05.642Z,38272.00
2018-07-06T09:00:05.893Z,39552.00
2018-07-06T09:01:06.147Z,36992.00
2018-07-06T09:02:06.398Z,38112.00
2018-07-06T09:03:06.650Z,39488.00
2018-07-06T09:04:06.967Z,40640.00
2018-07-06T09:05:07.157Z,38432.00
2018-07-06T09:06:07.410Z,36704.00
2018-07-06T09:07:07.660Z,45120.00
2018-07-06T09:08:07.913Z,41664.00
2018-07-06T09:09:08.167Z,32800.00
2018-07-06T09:10:08.420Z,43360.00
2018-07-06T09:11:08.672Z,43776.00
2018-07-06T09:12:08.925Z,42656.00
2018-07-06T09:13:09.178Z,46048.00
2018-07-06T09:14:09.468Z,44640.00
2018-07-06T09:15:09.683Z,42656.00
2018-07-06T09:16:09.997Z,43008.00
2018-07-06T09:17:10.197Z,44064.00
2018-07-06T09:18:10.441Z,43264.00
2018-07-06T09:19:10.694Z,39488.00
2018-07-06T09:20:11.093Z,40544.00
2018-07-06T09:21:11.201Z,35488.00
2018-07-06T09:22:11.456Z,36896.00
2018-07-06T09:23:11.709Z,41536.00
2018-07-06T09:24:11.992Z,43808.00
2018-07-06T09:25:12.217Z,44544.00
2018-07-06T09:26:12.854Z,42496.00
2018-07-06T09:27:12.728Z,45440.00
2018-07-06T09:28:12.982Z,49248.00
2018-07-06T09:29:13.412Z,49376.00
2018-07-06T09:30:13.522Z,50432.00
2018-07-06T09:31:13.745Z,51232.00
2018-07-06T09:32:14.000Z,53632.00
2018-07-06T09:33:14.255Z,53696.00
2018-07-06T09:34:14.508Z,54368.00
2018-07-06T09:35:14.762Z,54144.00
2018-07-06T09:36:15.019Z,54752.00
2018-07-06T09:37:15.272Z,54400.00
2018-07-06T09:38:15.525Z,52000.00
2018-07-06T09:39:15.779Z,51744.00
2018-07-06T09:40:16.033Z,51104.00
2018-07-06T09:41:16.288Z,52032.00
2018-07-06T09:42:16.546Z,50272.00
2018-07-06T09:43:16.847Z,48320.00
2018-07-06T09:44:17.050Z,50336.00
2018-07-06T09:45:17.303Z,43328.00
2018-07-06T09:46:17.558Z,47904.00
2018-07-06T09:47:17.812Z,52352.00
2018-07-06T09:48:18.067Z,54464.00
2018-07-06T09:49:18.319Z,53440.00
2018-07-06T09:50:18.574Z,53728.00
2018-07-06T09:51:18.830Z,54784.00
2018-07-06T09:52:19.083Z,55584.00
2018-07-06T09:53:19.336Z,56352.00
2018-07-06T09:54:19.590Z,58976.00
2018-07-06T09:55:19.844Z,66272.00
2018-07-06T09:56:20.103Z,68256.00
2018-07-06T09:57:20.353Z,68576.00
2018-07-06T09:58:20.609Z,65088.00
2018-07-06T09:59:20.864Z,64224.00
2018-07-06T10:00:21.120Z,73248.00
2018-07-06T10:01:21.375Z,73952.00
2018-07-06T10:02:21.632Z,68480.00
2018-07-06T10:03:21.889Z,75616.00
2018-07-06T10:04:22.191Z,73568.00
2018-07-06T10:05:22.403Z,71104.00
2018-07-06T10:06:22.655Z,72992.00
2018-07-06T10:07:22.908Z,74720.00
2018-07-06T10:08:23.164Z,75296.00
2018-07-06T10:09:23.421Z,74592.00
2018-07-06T10:10:23.698Z,68288.00
2018-07-06T10:11:23.935Z,72480.00
2018-07-06T10:12:24.192Z,74688.00
2018-07-06T10:13:24.448Z,73280.00
2018-07-06T10:14:24.707Z,72928.00
2018-07-06T10:15:24.960Z,69664.00
2018-07-06T10:16:25.214Z,23104.00
2018-07-06T10:17:25.471Z,42784.00
2018-07-06T10:18:25.727Z,72000.00
2018-07-06T10:19:25.999Z,74816.00
2018-07-06T10:20:26.239Z,73472.00
2018-07-06T10:21:26.495Z,27648.00
2018-07-06T10:22:26.751Z,78496.00
2018-07-06T10:23:27.005Z,74944.00
2018-07-06T10:24:27.262Z,75328.00
2018-07-06T10:25:27.516Z,74528.00
2018-07-06T10:26:27.781Z,71264.00
2018-07-06T10:27:28.091Z,73312.00
2018-07-06T10:28:28.286Z,79200.00
2018-07-06T10:29:28.540Z,80832.00
2018-07-06T10:30:28.797Z,81376.00
2018-07-06T10:31:29.053Z,80928.00
2018-07-06T10:32:29.310Z,80352.00
2018-07-06T10:33:29.577Z,78848.00
2018-07-06T10:34:29.822Z,77184.00
2018-07-06T10:35:30.082Z,74592.00
2018-07-06T10:36:30.334Z,80864.00
2018-07-06T10:37:30.591Z,49600.00
2018-07-06T10:38:30.847Z,59424.00
2018-07-06T10:39:31.185Z,82528.00
2018-07-06T10:40:31.357Z,84672.00
2018-07-06T10:41:31.613Z,83968.00
2018-07-06T10:42:31.868Z,82368.00
2018-07-06T10:43:32.124Z,79072.00
2018-07-06T10:44:32.380Z,77760.00
2018-07-06T10:45:32.638Z,76064.00
2018-07-06T10:46:32.901Z,76064.00
2018-07-06T10:47:33.148Z,73600.00
2018-07-06T10:48:33.410Z,72576.00
2018-07-06T10:49:33.665Z,74976.00
2018-07-06T10:50:33.920Z,73024.00
2018-07-06T10:51:34.177Z,70944.00
2018-07-06T10:52:34.434Z,70976.00
2018-07-06T10:53:34.688Z,70080.00
2018-07-06T10:54:34.944Z,70048.00
2018-07-06T10:55:35.204Z,72192.00
2018-07-06T10:56:35.458Z,70560.00
2018-07-06T10:57:35.712Z,67520.00
2018-07-06T10:58:35.966Z,69056.00
2018-07-06T10:59:36.221Z,72256.00
2018-07-06T11:00:36.477Z,72704.00
2018-07-06T11:01:36.734Z,70912.00
2018-07-06T11:02:36.991Z,71648.00
2018-07-06T11:03:37.245Z,75232.00
2018-07-06T11:04:37.500Z,79072.00
2018-07-06T11:05:37.756Z,76960.00
2018-07-06T11:06:38.013Z,74528.00
2018-07-06T11:07:38.271Z,74336.00
2018-07-06T11:08:38.526Z,75904.00
2018-07-06T11:09:38.783Z,77120.00
2018-07-06T11:10:39.037Z,77024.00
2018-07-06T11:11:39.311Z,72928.00
2018-07-06T11:12:39.548Z,71168.00
2018-07-06T11:13:39.804Z,75584.00
2018-07-06T11:14:40.059Z,77216.00
2018-07-06T11:15:40.312Z,72576.00
2018-07-06T11:16:40.568Z,71360.00
2018-07-06T11:17:40.827Z,71264.00
2018-07-06T11:18:41.080Z,71904.00
2018-07-06T11:19:41.335Z,73952.00
2018-07-06T11:20:41.589Z,74528.00
2018-07-06T11:21:41.845Z,73440.00
2018-07-06T11:22:42.100Z,71456.00
2018-07-06T11:23:42.355Z,70240.00
2018-07-06T11:24:42.610Z,72832.00
2018-07-06T11:25:42.862Z,76352.00
2018-07-06T11:26:43.119Z,77920.00
2018-07-06T11:27:43.378Z,77440.00
2018-07-06T11:28:43.629Z,76000.00
2018-07-06T11:29:43.883Z,74208.00
2018-07-06T11:30:44.139Z,72992.00
2018-07-06T11:31:44.394Z,73888.00
2018-07-06T11:32:44.651Z,75360.00
2018-07-06T11:33:44.904Z,75328.00
2018-07-06T11:34:45.165Z,74240.00
2018-07-06T11:35:45.415Z,73440.00
2018-07-06T11:36:45.672Z,72928.00
2018-07-06T11:37:45.928Z,76512.00
2018-07-06T11:38:46.181Z,81056.00
2018-07-06T11:39:46.436Z,81120.00
2018-07-06T11:40:46.692Z,79936.00
2018-07-06T11:41:46.944Z,76096.00
2018-07-06T11:42:47.202Z,70656.00
2018-07-06T11:43:47.454Z,74912.00
2018-07-06T11:44:47.752Z,80512.00
2018-07-06T11:45:47.965Z,77024.00
2018-07-06T11:46:48.220Z,82240.00
2018-07-06T11:47:48.475Z,71744.00
2018-07-06T11:48:48.731Z,76032.00
2018-07-06T11:49:48.984Z,62592.00
2018-07-06T11:50:49.240Z,78368.00
2018-07-06T11:51:49.498Z,85600.00
2018-07-06T11:52:49.751Z,81824.00
2018-07-06T11:53:50.007Z,73376.00
2018-07-06T11:54:50.260Z,75776.00
2018-07-06T11:55:50.517Z,83616.00
2018-07-06T11:56:50.773Z,87328.00
2018-07-06T11:57:51.027Z,88320.00
2018-07-06T11:58:51.284Z,85984.00
2018-07-06T11:59:51.537Z,82528.00
2018-07-06T12:00:51.793Z,84928.00
2018-07-06T12:01:52.097Z,87936.00
2018-07-06T12:02:52.302Z,85376.00
2018-07-06T12:03:52.582Z,80896.00
2018-07-06T12:04:52.812Z,82176.00
2018-07-06T12:05:53.069Z,80768.00
2018-07-06T12:06:53.322Z,83136.00
2018-07-06T12:07:53.576Z,82880.00
2018-07-06T12:08:53.831Z,82016.00
2018-07-06T12:09:54.083Z,82848.00
2018-07-06T12:10:54.338Z,86656.00
2018-07-06T12:11:54.593Z,85728.00
2018-07-06T12:12:54.847Z,82688.00
2018-07-06T12:13:55.103Z,84096.00
2018-07-06T12:14:55.357Z,86560.00
2018-07-06T12:15:55.613Z,85920.00
2018-07-06T12:16:55.867Z,86720.00